Time;durP1;ratioP1;P1;durP2;ratioP2;P2;SDS_P1;SDS_P2;PMS_P1;PMS_P2;Temp;Humidity;BMP_temperature;BMP_pressure;BME280_temperature;BME280_humidity;BME280_pressure;Samples;Min_cycle;Max_cycle;Signal;HPM_P1;HPM_P2
2022/06/24 00:01:59;;;;;;;6.22;4.90;;;;;;;18.00;55.04;100155.80;2136094;83;33177;-62
2022/06/24 00:05:05;;;;;;;6.40;5.08;;;;;;;17.95;54.85;100166.15;2135934;83;30386;-62
2022/06/24 00:08:06;;;;;;;8.03;5.33;;;;;;;17.90;55.31;100157.02;2136090;83;27620;-62
2022/06/24 00:11:14;;;;;;;7.25;5.75;;;;;;;17.84;55.34;100162.97;2111355;83;29065;-62
2022/06/24 00:14:15;;;;;;;8.65;5.70;;;;;;;17.77;55.27;100163.46;2136010;83;32187;-62
2022/06/24 00:17:18;;;;;;;10.88;7.20;;;;;;;17.72;55.31;100156.20;2135857;83;32567;-61
2022/06/24 00:20:22;;;;;;;9.43;5.75;;;;;;;17.69;55.73;100150.17;2135708;83;30935;-61
2022/06/24 00:23:23;;;;;;;16.82;6.62;;;;;;;17.64;55.94;100159.16;2136120;83;27671;-62
2022/06/24 00:26:41;;;;;;;7.08;6.17;;;;;;;17.59;56.21;100156.84;2135944;83;28638;-74
2022/06/24 00:29:43;;;;;;;8.33;6.65;;;;;;;17.54;55.81;100157.73;2135892;83;31080;-62
2022/06/24 00:32:45;;;;;;;8.23;5.70;;;;;;;17.48;55.83;100164.48;2135614;83;33667;-62
2022/06/24 00:35:51;;;;;;;8.10;6.40;;;;;;;17.44;56.51;100154.39;2135806;83;29638;-61
2022/06/24 00:38:53;;;;;;;9.13;5.75;;;;;;;17.42;56.11;100159.07;2136152;83;27633;-62
2022/06/24 00:41:54;;;;;;;8.53;6.20;;;;;;;17.40;56.23;100158.33;2136185;83;28662;-61
2022/06/24 00:45:34;;;;;;;11.93;6.15;;;;;;;17.36;56.31;100154.17;2135564;83;31961;-62
2022/06/24 00:48:38;;;;;;;8.85;6.40;;;;;;;17.35;56.25;100156.98;2135408;83;34792;-61
2022/06/24 00:51:41;;;;;;;7.72;6.00;;;;;;;17.30;56.74;100157.36;2133084;83;30448;-62
2022/06/24 00:54:44;;;;;;;7.72;6.22;;;;;;;17.24;57.52;100155.13;2116231;84;27622;-62
2022/06/24 00:57:45;;;;;;;8.85;5.28;;;;;;;17.19;57.32;100151.95;2115711;84;29968;-61
2022/06/24 01:00:49;;;;;;;6.28;5.67;;;;;;;17.15;57.42;100145.91;2115690;84;32148;-61
2022/06/24 01:03:55;;;;;;;6.42;5.15;;;;;;;17.05;57.43;100135.45;2115799;84;36771;-61
2022/06/24 01:06:58;;;;;;;8.25;5.50;;;;;;;17.09;57.30;100139.14;2115968;84;30293;-62
2022/06/24 01:09:59;;;;;;;7.45;5.40;;;;;;;17.08;57.56;100133.86;2115924;84;27719;-61
2022/06/24 01:13:01;;;;;;;7.30;5.42;;;;;;;16.91;57.80;100109.45;2116064;84;29870;-61
2022/06/24 01:16:05;;;;;;;7.55;5.25;;;;;;;17.00;57.60;100125.84;2115722;84;32034;-62
2022/06/24 01:19:10;;;;;;;6.62;5.47;;;;;;;16.95;57.91;100126.73;2116007;84;32403;-61
2022/06/24 01:22:20;;;;;;;7.45;6.35;;;;;;;16.92;58.42;100129.64;2116045;84;29799;-61
2022/06/24 01:25:22;;;;;;;10.63;6.62;;;;;;;16.78;57.86;100113.13;2115003;82;27753;-61
2022/06/24 01:28:25;;;;;;;9.18;7.20;;;;;;;16.81;58.23;100129.60;2115854;84;29889;-61
2022/06/24 01:31:27;;;;;;;12.78;7.20;;;;;;;16.77;58.18;100126.80;2116063;84;31436;-63
2022/06/24 01:34:29;;;;;;;8.50;6.03;;;;;;;16.65;58.58;100120.50;2115767;84;33826;-62
2022/06/24 01:37:31;;;;;;;9.83;6.15;;;;;;;16.65;58.58;100120.50;2116057;84;30255;-64
2022/06/24 01:40:33;;;;;;;8.55;5.90;;;;;;;16.61;58.54;100120.36;2116072;84;27625;-61
2022/06/24 01:43:36;;;;;;;6.60;5.65;;;;;;;16.55;58.88;100129.31;2115990;84;28322;-61
2022/06/24 01:46:39;;;;;;;6.12;5.53;;;;;;;16.52;59.08;100126.87;2116370;84;30656;-62
2022/06/24 01:49:42;;;;;;;8.63;6.53;;;;;;;16.48;59.35;100124.50;2116159;84;32974;-61
2022/06/24 01:52:44;;;;;;;8.50;6.47;;;;;;;16.43;59.13;100128.91;2115691;82;30909;-62
2022/06/24 01:55:46;;;;;;;10.35;7.35;;;;;;;16.38;59.49;100130.62;2116277;84;27717;-61
2022/06/24 01:58:48;;;;;;;7.90;7.05;;;;;;;16.36;59.58;100127.17;2168109;81;28624;-61
2022/06/24 02:01:49;;;;;;;10.23;7.15;;;;;;;16.33;59.74;100126.56;2148091;82;31039;-61
2022/06/24 02:04:52;;;;;;;8.00;6.50;;;;;;;16.27;60.06;100120.27;2148179;82;32950;-62
2022/06/24 02:07:53;;;;;;;8.43;7.22;;;;;;;16.27;60.06;100120.27;2148422;81;29984;-62
2022/06/24 02:14:16;;;;;;;9.15;7.28;;;;;;;16.10;60.08;100099.44;2147705;82;29980;-62
2022/06/24 02:17:17;;;;;;;13.58;7.33;;;;;;;16.20;60.16;100119.88;2118812;82;32356;-62
2022/06/24 02:20:19;;;;;;;9.20;6.30;;;;;;;16.17;60.15;100123.68;2147604;82;34272;-62
2022/06/24 02:23:22;;;;;;;10.15;6.90;;;;;;;16.16;60.25;100123.78;2136178;78;30027;-61
2022/06/24 02:26:25;;;;;;;9.03;6.45;;;;;;;16.14;60.63;100121.20;2106184;84;27635;-61
2022/06/24 02:29:27;;;;;;;9.65;6.85;;;;;;;16.10;60.85;100117.88;2106180;84;29551;-61
2022/06/24 02:32:28;;;;;;;10.13;7.00;;;;;;;16.08;60.64;100111.73;2105769;84;32486;-67
2022/06/24 02:35:30;;;;;;;8.43;6.47;;;;;;;16.05;61.04;100113.81;2105922;84;33785;-69
2022/06/24 02:38:32;;;;;;;9.45;6.70;;;;;;;16.05;61.04;100113.81;2106197;84;29419;-62
2022/06/24 02:41:34;;;;;;;8.58;6.08;;;;;;;16.03;61.48;100107.16;2106045;84;27714;-63
2022/06/24 02:44:35;;;;;;;7.00;6.30;;;;;;;16.03;61.32;100107.66;2106191;84;28620;-60
2022/06/24 02:47:37;;;;;;;8.35;6.28;;;;;;;16.04;61.27;100110.73;2106225;84;31006;-63
2022/06/24 02:50:44;;;;;;;7.25;6.15;;;;;;;16.02;61.57;100108.63;2106185;84;33011;-68
2022/06/24 02:53:46;;;;;;;9.05;6.10;;;;;;;16.01;60.89;100105.55;2106148;84;29644;-67
2022/06/24 02:56:47;;;;;;;13.53;6.78;;;;;;;16.01;60.89;100105.55;2106282;84;27648;-62
2022/06/24 02:59:49;;;;;;;9.83;6.53;;;;;;;16.01;61.10;100112.31;2106060;84;28716;-68
2022/06/24 03:02:50;;;;;;;8.80;6.50;;;;;;;16.01;61.39;100107.75;2106153;84;31085;-62
2022/06/24 03:05:54;;;;;;;9.23;6.17;;;;;;;16.01;61.22;100109.61;2105992;84;32947;-62
2022/06/24 03:08:55;;;;;;;7.12;6.33;;;;;;;16.02;61.40;100111.34;2106035;84;29706;-70
2022/06/24 03:11:57;;;;;;;8.95;6.72;;;;;;;15.86;61.84;100082.78;2106208;84;27698;-64
2022/06/24 03:14:58;;;;;;;9.33;7.53;;;;;;;15.86;61.84;100082.78;2106161;84;28653;-66
2022/06/24 03:17:59;;;;;;;8.38;6.17;;;;;;;15.99;61.96;100107.51;2105797;84;31084;-64
2022/06/24 03:21:01;;;;;;;13.32;8.53;;;;;;;16.02;62.20;100109.98;2101265;84;33864;-64
2022/06/24 03:24:03;;;;;;;13.22;8.55;;;;;;;16.03;62.13;100109.01;2111265;83;29631;-64
2022/06/24 03:27:04;;;;;;;10.15;7.95;;;;;;;16.03;62.13;100109.01;2113051;84;27760;-64
2022/06/24 03:30:09;;;;;;;13.65;7.97;;;;;;;16.05;62.04;100107.91;2112833;84;29537;-64
2022/06/24 03:33:10;;;;;;;9.50;7.33;;;;;;;16.06;62.20;100101.52;2113037;84;34758;-64
2022/06/24 03:36:12;;;;;;;12.20;8.03;;;;;;;16.08;61.97;100105.45;2112902;84;34054;-62
2022/06/24 03:39:14;;;;;;;11.18;7.85;;;;;;;16.14;62.01;100110.87;2112970;84;29631;-62
2022/06/24 03:42:16;;;;;;;10.32;7.62;;;;;;;16.20;62.06;100111.29;2112807;84;27630;-65
2022/06/24 03:45:17;;;;;;;10.13;8.00;;;;;;;16.26;61.75;100114.01;2112549;84;30796;-64
2022/06/24 03:48:19;;;;;;;12.23;8.20;;;;;;;16.33;62.08;100119.80;2112906;84;31389;-63
2022/06/24 03:51:20;;;;;;;12.95;8.80;;;;;;;16.37;62.50;100118.59;2112654;84;34186;-63
2022/06/24 03:54:22;;;;;;;13.60;7.58;;;;;;;16.42;62.02;100110.97;2112605;84;30852;-64
2022/06/24 03:57:24;;;;;;;8.93;6.03;;;;;;;16.34;61.98;100093.14;2113143;84;27666;-63
2022/06/24 04:00:25;;;;;;;10.55;7.03;;;;;;;16.53;62.18;100118.25;2113169;84;29084;-62
2022/06/24 04:03:27;;;;;;;8.30;6.53;;;;;;;16.57;62.07;100122.45;2112942;84;31125;-62
2022/06/24 04:06:28;;;;;;;10.90;6.95;;;;;;;16.68;62.06;100125.16;2113004;84;32802;-63
2022/06/24 04:09:29;;;;;;;9.55;6.33;;;;;;;16.68;62.06;100125.16;2112997;84;30725;-63
2022/06/24 04:12:30;;;;;;;10.50;6.60;;;;;;;16.77;61.82;100130.85;2112627;84;27747;-66
2022/06/24 04:15:31;;;;;;;12.73;6.50;;;;;;;16.84;61.89;100128.89;2112462;84;28643;-63
2022/06/24 04:18:36;;;;;;;9.30;5.65;;;;;;;16.93;61.95;100119.19;2112313;84;31723;-63
2022/06/24 04:21:38;;;;;;;9.68;6.55;;;;;;;17.02;61.70;100120.33;2112804;84;33873;-65
2022/06/24 04:24:39;;;;;;;7.00;5.47;;;;;;;17.12;61.61;100121.81;2105955;84;29996;-62
2022/06/24 04:27:41;;;;;;;9.78;6.40;;;;;;;17.28;61.19;100116.01;2105785;84;27809;-63
2022/06/24 04:30:44;;;;;;;8.05;6.37;;;;;;;17.28;61.19;100116.01;2105775;84;28727;-63
2022/06/24 04:33:46;;;;;;;11.97;6.17;;;;;;;17.36;61.34;100114.91;2105714;84;31005;-63
2022/06/24 04:36:47;;;;;;;9.05;6.17;;;;;;;17.51;61.15;100121.41;2105729;84;34258;-62
2022/06/24 04:39:49;;;;;;;8.73;6.42;;;;;;;17.68;61.15;100123.59;2105642;84;30772;-63
2022/06/24 04:42:51;;;;;;;8.13;5.70;;;;;;;17.91;60.83;100123.51;2105724;84;28256;-63
2022/06/24 04:45:52;;;;;;;9.13;6.25;;;;;;;18.11;60.57;100122.37;2105344;84;28888;-62
2022/06/24 04:48:53;;;;;;;7.67;5.42;;;;;;;18.42;60.75;100127.41;2105687;84;31374;-63
2022/06/24 04:51:54;;;;;;;10.35;5.22;;;;;;;19.55;60.29;100121.63;2105373;84;34154;-64
2022/06/24 04:54:55;;;;;;;6.00;5.17;;;;;;;21.12;59.46;100113.92;2105855;84;30187;-64
2022/06/24 04:57:57;;;;;;;11.88;5.60;;;;;;;22.83;56.72;100113.28;2105756;84;27649;-63
2022/06/24 05:00:59;;;;;;;9.28;4.67;;;;;;;24.33;54.16;100100.48;2105935;84;29458;-63
2022/06/24 05:04:02;;;;;;;7.20;5.30;;;;;;;25.66;53.12;100105.14;2106227;84;31038;-61
2022/06/24 05:07:05;;;;;;;8.28;4.70;;;;;;;26.84;50.26;100107.20;2106416;84;32949;-61
2022/06/24 05:10:08;;;;;;;7.47;4.63;;;;;;;27.96;48.75;100103.05;2106469;84;29637;-61
2022/06/24 05:13:10;;;;;;;7.03;4.45;;;;;;;29.06;46.92;100095.86;2106543;84;27611;-62
2022/06/24 05:16:11;;;;;;;9.08;4.75;;;;;;;30.05;44.87;100097.02;2106342;84;28140;-63
2022/06/24 05:19:13;;;;;;;6.40;4.40;;;;;;;30.90;42.00;100097.27;2106200;84;32308;-63
2022/06/24 05:22:14;;;;;;;7.67;4.47;;;;;;;31.56;40.77;100103.36;2106181;84;34030;-64
2022/06/24 05:25:15;;;;;;;6.05;4.60;;;;;;;31.98;40.20;100103.83;2105845;84;29814;-62
2022/06/24 05:28:16;;;;;;;9.30;4.50;;;;;;;32.69;38.15;100099.02;2106752;84;27679;-63
2022/06/24 05:31:17;;;;;;;8.53;4.45;;;;;;;33.21;37.63;100093.70;2106130;84;29078;-63
2022/06/24 05:34:18;;;;;;;5.25;4.60;;;;;;;33.67;34.84;100092.84;2105703;84;32341;-62
2022/06/24 05:37:23;;;;;;;6.67;4.40;;;;;;;34.08;35.75;100093.14;2106135;84;33395;-62
2022/06/24 05:40:26;;;;;;;6.67;4.72;;;;;;;34.81;33.92;100098.58;2106397;84;29407;-64
2022/06/24 05:43:28;;;;;;;5.12;4.28;;;;;;;35.09;33.68;100094.22;2106516;84;33411;-63
2022/06/24 05:46:29;;;;;;;6.60;3.92;;;;;;;35.51;31.23;100094.58;2106203;84;29900;-63
2022/06/24 05:49:31;;;;;;;5.85;4.00;;;;;;;35.68;29.53;100084.34;2106081;83;31880;-64
2022/06/24 05:55:59;;;;;;;4.25;3.85;;;;;;;35.37;28.84;100077.29;2106127;84;30184;-64
2022/06/24 05:59:04;;;;;;;10.13;4.60;;;;;;;35.32;28.90;100072.47;2106398;84;27821;-63
2022/06/24 06:02:07;;;;;;;6.20;4.12;;;;;;;35.49;28.31;100066.14;2106214;84;29391;-63
2022/06/24 06:05:09;;;;;;;4.87;3.75;;;;;;;35.15;27.07;100069.59;2106178;84;31096;-63
2022/06/24 06:08:11;;;;;;;5.03;3.92;;;;;;;35.17;27.24;100065.15;2106143;84;33786;-63
2022/06/24 06:11:22;;;;;;;10.15;4.10;;;;;;;35.44;26.78;100059.90;2105864;84;30957;-63
2022/06/24 06:14:23;;;;;;;5.83;3.87;;;;;;;35.52;26.49;100069.80;2106210;84;28189;-62
2022/06/24 06:17:24;;;;;;;5.25;4.37;;;;;;;35.82;26.99;100059.80;2106643;84;28991;-62
2022/06/24 06:20:25;;;;;;;7.12;4.15;;;;;;;35.90;25.30;100055.77;2106156;84;32221;-63
2022/06/24 06:23:30;;;;;;;3.80;3.37;;;;;;;35.87;26.16;100057.13;2105973;84;33331;-62
2022/06/24 06:26:32;;;;;;;8.13;4.40;;;;;;;36.14;25.04;100060.68;2105932;84;29698;-62
2022/06/24 06:29:33;;;;;;;6.03;3.70;;;;;;;36.48;24.26;100056.52;2106224;84;27591;-63
2022/06/24 06:32:34;;;;;;;7.22;4.25;;;;;;;36.54;23.92;100062.20;2106002;84;29902;-63
2022/06/24 06:35:36;;;;;;;6.70;3.60;;;;;;;36.84;25.13;100049.79;2106117;84;32192;-63
2022/06/24 06:38:38;;;;;;;6.55;3.33;;;;;;;36.96;23.67;100053.90;2106213;84;34114;-63
2022/06/24 06:41:41;;;;;;;5.87;3.60;;;;;;;37.34;24.67;100055.78;2106197;84;29985;-63
2022/06/24 06:44:43;;;;;;;6.78;3.40;;;;;;;37.90;23.82;100051.95;2106384;84;28173;-63
2022/06/24 06:47:44;;;;;;;6.03;3.62;;;;;;;38.30;23.47;100054.00;2106258;84;29037;-63
2022/06/24 06:50:46;;;;;;;3.98;3.58;;;;;;;38.39;23.26;100045.41;2106254;84;32240;-63
2022/06/24 06:53:47;;;;;;;8.68;3.30;;;;;;;38.45;22.28;100047.69;2106160;84;33351;-64
2022/06/24 06:56:48;;;;;;;9.98;4.28;;;;;;;38.41;20.90;100040.93;2106300;84;29997;-63
2022/06/24 06:59:51;;;;;;;5.15;3.05;;;;;;;38.28;22.11;100033.26;2106208;84;27611;-64
2022/06/24 07:02:53;;;;;;;3.77;3.13;;;;;;;38.22;21.81;100025.95;2106134;84;29097;-64
2022/06/24 07:05:54;;;;;;;5.15;3.98;;;;;;;37.90;21.32;100018.39;2105906;84;31868;-65
2022/06/24 07:08:56;;;;;;;3.30;3.05;;;;;;;37.57;20.46;100031.45;2105700;84;33560;-64
2022/06/24 07:11:57;;;;;;;4.10;2.92;;;;;;;37.54;21.72;100028.64;2106026;84;29448;-64
2022/06/24 07:14:58;;;;;;;4.25;3.20;;;;;;;37.90;21.51;100021.75;2105932;84;27685;-64
2022/06/24 07:18:00;;;;;;;7.62;3.05;;;;;;;38.14;21.06;100013.28;2106079;84;28507;-65
2022/06/24 07:21:02;;;;;;;6.20;2.80;;;;;;;38.23;20.85;100013.63;2106081;83;30904;-66
2022/06/24 07:24:05;;;;;;;4.90;2.80;;;;;;;38.29;19.72;100013.97;2105742;84;33801;-64
2022/06/24 07:27:09;;;;;;;2.85;2.58;;;;;;;38.09;19.82;100009.06;2101008;84;30966;-64
2022/06/24 07:30:12;;;;;;;3.67;2.62;;;;;;;38.01;19.49;100002.55;2106214;84;27596;-64
2022/06/24 07:33:14;;;;;;;4.87;2.92;;;;;;;38.10;19.89;100005.70;2106311;84;28665;-64
2022/06/24 07:36:17;;;;;;;3.62;2.65;;;;;;;38.07;19.52;99993.09;2106014;84;31156;-63
2022/06/24 07:39:20;;;;;;;4.65;2.90;;;;;;;37.88;18.81;100002.97;2106152;84;33773;-63
2022/06/24 07:42:21;;;;;;;4.20;3.10;;;;;;;37.62;19.88;99996.58;2105997;84;30861;-64
2022/06/24 07:45:23;;;;;;;7.78;3.20;;;;;;;37.65;20.07;100001.64;2106219;84;27572;-64
2022/06/24 07:48:25;;;;;;;4.30;2.92;;;;;;;37.91;20.17;99984.30;2105697;84;29508;-64
2022/06/24 07:51:28;;;;;;;5.62;3.00;;;;;;;37.80;20.00;99986.13;2105758;83;32238;-62
2022/06/24 07:54:31;;;;;;;5.20;3.00;;;;;;;37.50;19.95;99978.56;2106124;84;32975;-63
2022/06/24 07:57:32;;;;;;;7.30;3.10;;;;;;;37.23;20.15;99977.98;2105885;84;30810;-63
2022/06/24 08:00:34;;;;;;;4.75;2.77;;;;;;;36.90;20.18;99981.76;2105971;84;27695;-64
2022/06/24 08:03:37;;;;;;;3.27;2.98;;;;;;;36.86;20.22;99975.83;2106002;84;29426;-64
2022/06/24 08:06:45;;;;;;;9.43;3.37;;;;;;;36.42;20.25;99970.17;2106186;84;32311;-64
2022/06/24 08:09:46;;;;;;;5.20;3.05;;;;;;;36.35;20.89;99976.77;2105989;84;33893;-63
2022/06/24 08:12:48;;;;;;;5.70;3.55;;;;;;;36.22;20.93;99974.34;2105907;84;30571;-64
2022/06/24 08:15:50;;;;;;;3.67;3.12;;;;;;;36.15;21.17;99978.70;2106475;84;27670;-64
2022/06/24 08:18:52;;;;;;;2.80;2.45;;;;;;;36.17;21.31;99965.88;2106207;84;28691;-64
2022/06/24 08:21:53;;;;;;;3.67;2.90;;;;;;;36.17;21.24;99962.56;2106061;84;31424;-64
2022/06/24 08:24:55;;;;;;;6.50;2.75;;;;;;;36.13;21.53;99971.70;2106068;83;33880;-64
2022/06/24 08:27:58;;;;;;;3.30;3.00;;;;;;;35.79;21.44;99959.95;2105741;84;30651;-64
2022/06/24 08:30:59;;;;;;;3.42;2.77;;;;;;;35.65;21.75;99955.28;2106263;84;27655;-64
2022/06/24 08:34:01;;;;;;;5.05;2.70;;;;;;;35.60;21.58;99956.57;2106107;84;29056;-63
2022/06/24 08:37:04;;;;;;;3.47;3.17;;;;;;;35.40;21.01;99963.98;2105726;84;31054;-64
2022/06/24 08:40:07;;;;;;;4.80;3.30;;;;;;;35.11;22.00;99948.64;2105711;84;34283;-64
2022/06/24 08:43:09;;;;;;;;;;;;;;;35.02;22.15;99952.93;2108354;84;29693;-63
2022/06/24 08:46:11;;;;;;;6.40;3.15;;;;;;;34.65;22.21;99945.75;2106148;84;27608;-63
2022/06/24 08:49:14;;;;;;;3.67;2.72;;;;;;;34.69;22.48;99933.88;2105851;84;29226;-64
2022/06/24 08:52:16;;;;;;;5.17;2.92;;;;;;;34.79;22.39;99936.56;2105724;84;32330;-64
2022/06/24 08:55:20;;;;;;;4.30;2.85;;;;;;;34.77;22.25;99934.03;2105996;84;33037;-64
2022/06/24 08:58:22;;;;;;;7.20;2.50;;;;;;;34.57;22.12;99936.38;2106168;84;29477;-64
2022/06/24 09:01:24;;;;;;;6.47;3.20;;;;;;;34.45;22.38;99933.07;2106045;84;27635;-65
2022/06/24 09:04:26;;;;;;;2.80;2.45;;;;;;;34.29;22.63;99931.00;2106072;84;29881;-65
2022/06/24 09:07:28;;;;;;;4.35;2.67;;;;;;;34.35;22.89;99928.62;2105638;84;31050;-65
2022/06/24 09:10:29;;;;;;;3.47;2.67;;;;;;;34.39;22.52;99929.30;2106133;84;33860;-64
2022/06/24 09:13:45;;;;;;;6.25;2.65;;;;;;;34.26;22.43;99925.92;2105749;84;29676;-64
2022/06/24 09:16:47;;;;;;;4.03;2.58;;;;;;;34.04;22.64;99924.60;2102024;84;27679;-65
2022/06/24 09:19:49;;;;;;;4.65;2.65;;;;;;;33.94;22.79;99921.56;2105982;84;29329;-65
2022/06/24 09:23:03;;;;;;;3.83;2.50;;;;;;;33.75;22.98;99926.34;2105945;84;31034;-64
2022/06/24 09:26:05;;;;;;;;;;;;;;;33.46;23.32;99917.84;2108421;83;34029;-65
2022/06/24 09:29:13;;;;;;;6.87;2.92;;;;;;;33.10;23.31;99914.90;2106445;84;29666;-65
2022/06/24 09:32:15;;;;;;;4.00;2.80;;;;;;;32.84;23.75;99910.58;2106369;84;27746;-65
2022/06/24 09:35:17;;;;;;;9.83;3.20;;;;;;;32.54;24.08;99912.19;2105945;84;28799;-65
2022/06/24 09:38:19;;;;;;;6.85;2.70;;;;;;;32.31;24.43;99904.55;2106342;84;31016;-65
2022/06/24 09:41:22;;;;;;;7.92;3.17;;;;;;;32.26;24.44;99899.70;2106217;84;33588;-65
2022/06/24 09:44:24;;;;;;;6.65;2.75;;;;;;;32.09;24.56;99918.81;2106201;84;29851;-65
2022/06/24 09:47:26;;;;;;;6.08;2.50;;;;;;;31.78;24.87;99893.41;2106341;84;27735;-65
2022/06/24 09:50:28;;;;;;;8.83;3.02;;;;;;;31.65;25.12;99895.73;2106394;84;28631;-64
2022/06/24 09:53:35;;;;;;;6.17;3.00;;;;;;;31.51;25.38;99893.08;2106486;84;31044;-64
2022/06/24 09:56:38;;;;;;;5.35;3.02;;;;;;;31.37;25.50;99893.70;2106295;84;32952;-64
2022/06/24 10:03:01;;;;;;;3.12;2.27;;;;;;;31.06;25.75;99889.83;2106672;84;28230;-64
2022/06/24 10:06:11;;;;;;;4.00;2.40;;;;;;;30.85;26.06;99893.78;2106916;84;29071;-64
2022/06/24 10:09:14;;;;;;;3.12;2.58;;;;;;;30.81;26.59;99890.27;2106801;84;31689;-64
2022/06/24 10:12:17;;;;;;;3.27;2.30;;;;;;;30.71;26.62;99879.16;2106804;84;33549;-63
2022/06/24 10:15:18;;;;;;;7.85;2.62;;;;;;;30.57;26.85;99879.73;2106463;84;30568;-64
2022/06/24 10:18:26;;;;;;;5.37;2.75;;;;;;;30.51;26.87;99890.27;2106219;83;27664;-64
2022/06/24 10:21:28;;;;;;;4.95;2.55;;;;;;;30.36;26.77;99873.10;2106721;84;29386;-64
2022/06/24 10:24:44;;;;;;;4.00;3.05;;;;;;;30.28;27.00;99866.73;2106357;84;32194;-65
2022/06/24 10:28:04;;;;;;;5.40;2.47;;;;;;;30.26;27.04;99868.03;2104638;83;33922;-64
2022/06/24 10:31:05;;;;;;;6.15;2.55;;;;;;;30.19;26.88;99859.76;2106504;84;30480;-65
2022/06/24 10:34:07;;;;;;;7.85;2.85;;;;;;;30.08;27.03;99862.65;2074688;84;27735;-65
2022/06/24 10:37:21;;;;;;;7.90;2.47;;;;;;;29.98;27.09;99858.08;2106418;84;29285;-63
2022/06/24 10:40:24;;;;;;;4.97;2.85;;;;;;;29.89;27.37;99852.45;2106663;84;32300;-60
2022/06/24 10:43:38;;;;;;;13.60;3.90;;;;;;;29.89;27.51;99846.38;2106280;84;34309;-60
2022/06/24 10:46:40;;;;;;;2.70;2.33;;;;;;;29.98;27.57;99851.17;2106624;84;29678;-61
2022/06/24 10:49:55;;;;;;;6.55;2.92;;;;;;;30.01;27.30;99847.98;2107034;84;27591;-61
2022/06/24 10:53:02;;;;;;;9.23;2.50;;;;;;;29.97;27.44;99844.81;2106571;84;29887;-60
2022/06/24 10:56:04;;;;;;;5.80;2.40;;;;;;;29.96;27.28;99829.82;2106127;84;32239;-60
2022/06/24 10:59:05;;;;;;;5.87;2.90;;;;;;;29.99;27.97;99832.16;2106553;83;33349;-60
2022/06/24 11:02:06;;;;;;;4.85;2.47;;;;;;;30.14;28.03;99835.52;2106589;84;30774;-60
2022/06/24 11:05:14;;;;;;;6.37;2.80;;;;;;;30.21;27.84;99831.34;2106496;84;27612;-61
2022/06/24 11:08:19;;;;;;;5.20;2.50;;;;;;;30.25;27.69;99829.86;2106699;84;29470;-60
2022/06/24 11:11:29;;;;;;;3.52;2.30;;;;;;;30.24;27.49;99830.09;2106676;84;31655;-61
2022/06/24 11:14:30;;;;;;;5.25;2.60;;;;;;;30.24;27.42;99823.18;2106406;84;32972;-61
2022/06/24 11:17:32;;;;;;;5.33;2.50;;;;;;;30.26;27.85;99826.03;2106562;84;28854;-61
2022/06/24 11:20:42;;;;;;;6.12;2.67;;;;;;;30.30;27.46;99815.38;2106630;84;27590;-61
2022/06/24 11:23:48;;;;;;;2.72;2.47;;;;;;;30.27;27.09;99812.53;2106156;84;28762;-61
2022/06/24 11:27:09;;;;;;;6.65;2.80;;;;;;;30.30;27.42;99811.23;2074370;84;30545;-61
2022/06/24 11:30:11;;;;;;;8.28;2.62;;;;;;;30.37;27.49;99806.54;2106392;84;33142;-62
2022/06/24 11:33:13;;;;;;;3.83;2.58;;;;;;;30.33;27.70;99797.53;2106570;84;29994;-60
2022/06/24 11:36:16;;;;;;;5.65;2.60;;;;;;;30.28;26.91;99792.67;2106588;84;27628;-61
2022/06/24 11:39:18;;;;;;;4.80;2.55;;;;;;;30.27;26.78;99793.19;2106124;84;29872;-62
2022/06/24 11:42:20;;;;;;;12.20;2.72;;;;;;;30.26;27.46;99788.73;2106431;84;31380;-61
2022/06/24 11:45:42;;;;;;;6.03;2.37;;;;;;;30.26;26.55;99786.51;2106398;84;32976;-61
2022/06/24 11:48:44;;;;;;;6.10;2.50;;;;;;;30.22;26.40;99790.22;2106117;84;30923;-61
2022/06/24 11:51:46;;;;;;;7.08;2.60;;;;;;;30.11;26.55;99782.63;2106641;84;27691;-61
2022/06/24 11:54:49;;;;;;;4.72;2.58;;;;;;;30.12;27.16;99774.10;2106215;84;29019;-61
2022/06/24 11:57:56;;;;;;;5.00;2.40;;;;;;;30.18;27.13;99786.22;2106054;84;32222;-61
2022/06/24 12:00:57;;;;;;;2.20;2.00;;;;;;;30.16;27.03;99791.11;2106406;84;32989;-61
2022/06/24 12:04:08;;;;;;;3.02;2.20;;;;;;;30.16;27.20;99782.27;2106893;84;30552;-61
2022/06/24 12:07:10;;;;;;;4.40;2.42;;;;;;;30.12;26.97;99781.56;2106688;84;28249;-61
2022/06/24 12:10:12;;;;;;;3.00;2.20;;;;;;;30.05;27.26;99782.09;2106231;84;29068;-62
2022/06/24 12:13:24;;;;;;;9.00;2.37;;;;;;;30.03;26.70;99774.05;2106462;84;31760;-62
2022/06/24 12:16:28;;;;;;;3.58;1.92;;;;;;;30.05;27.38;99769.67;2106468;84;33336;-62
2022/06/24 12:19:32;;;;;;;4.47;2.50;;;;;;;30.09;26.97;99765.41;2106676;84;29621;-62
2022/06/24 12:22:33;;;;;;;3.98;2.15;;;;;;;30.06;27.08;99765.84;2106613;84;27738;-62
2022/06/24 12:25:43;;;;;;;3.52;2.30;;;;;;;30.09;26.70;99766.80;2106093;84;30022;-62
2022/06/24 12:28:48;;;;;;;2.65;2.15;;;;;;;30.03;26.59;99769.90;2106213;84;31426;-62
2022/06/24 12:31:51;;;;;;;2.52;2.12;;;;;;;29.97;27.13;99759.70;2104509;84;32938;-62
2022/06/24 12:34:55;;;;;;;3.60;2.40;;;;;;;29.94;27.33;99758.75;2106196;84;30039;-61
2022/06/24 12:37:57;;;;;;;3.47;2.30;;;;;;;29.84;27.40;99753.69;2106030;84;27747;-61
2022/06/24 12:41:14;;;;;;;3.62;2.30;;;;;;;29.75;27.24;99756.34;2106177;84;29308;-62
2022/06/24 12:44:17;;;;;;;4.03;2.20;;;;;;;29.67;27.25;99747.77;2105930;84;32233;-62
2022/06/24 12:50:40;;;;;;;3.22;2.52;;;;;;;29.64;27.73;99739.39;2105954;84;30907;-61
2022/06/24 12:53:49;;;;;;;5.70;2.65;;;;;;;29.62;27.63;99727.71;2106417;84;27651;-62
2022/06/24 12:56:51;;;;;;;3.87;2.50;;;;;;;29.61;27.54;99719.66;2105795;84;29894;-62
2022/06/24 12:59:53;;;;;;;3.27;2.67;;;;;;;29.61;27.91;99723.25;2106461;84;31707;-62
2022/06/24 13:02:56;;;;;;;3.47;2.80;;;;;;;29.65;27.87;99719.52;2106174;84;33385;-62
2022/06/24 13:05:57;;;;;;;2.55;2.30;;;;;;;29.64;27.90;99711.78;2106348;84;29656;-62
2022/06/24 13:08:59;;;;;;;4.12;2.70;;;;;;;29.60;27.95;99701.40;2106087;84;27580;-62
2022/06/24 13:12:00;;;;;;;4.00;2.40;;;;;;;29.57;27.92;99708.18;2106134;84;29082;-62
2022/06/24 13:15:02;;;;;;;3.98;2.55;;;;;;;29.59;27.93;99694.18;2106207;84;31444;-62
2022/06/24 13:18:04;;;;;;;3.83;2.83;;;;;;;29.63;27.97;99689.38;2106324;84;33399;-62
2022/06/24 13:21:05;;;;;;;5.08;2.55;;;;;;;29.64;27.74;99692.46;2106250;84;30007;-62
2022/06/24 13:24:07;;;;;;;5.95;2.55;;;;;;;29.61;27.75;99681.84;2106312;84;27589;-62
2022/06/24 13:27:08;;;;;;;7.35;2.58;;;;;;;29.59;28.16;99679.00;2106125;83;29106;-61
2022/06/24 13:30:12;;;;;;;6.87;2.65;;;;;;;29.62;28.36;99673.88;2106484;84;31584;-63
2022/06/24 13:33:14;;;;;;;4.12;2.37;;;;;;;29.67;28.33;99681.51;2104532;84;32933;-62
2022/06/24 13:36:15;;;;;;;2.90;2.27;;;;;;;29.68;28.16;99682.69;2104450;84;30726;-65
2022/06/24 13:39:17;;;;;;;3.35;2.55;;;;;;;29.66;27.62;99681.19;2104571;84;27620;-65
2022/06/24 13:42:18;;;;;;;3.37;2.25;;;;;;;29.64;27.74;99681.42;2104480;84;28652;-65
2022/06/24 13:45:20;;;;;;;4.08;2.40;;;;;;;29.64;27.86;99684.18;2104395;84;31099;-66
2022/06/24 13:48:21;;;;;;;3.83;2.65;;;;;;;29.60;27.58;99678.77;2076641;84;33373;-65
2022/06/24 13:51:24;;;;;;;3.52;2.52;;;;;;;29.59;27.54;99671.55;2104157;84;30053;-65
2022/06/24 13:54:26;;;;;;;2.92;2.35;;;;;;;29.63;27.76;99671.95;2104772;84;27691;-66
2022/06/24 13:57:27;;;;;;;5.10;2.40;;;;;;;29.67;27.82;99670.47;2104433;84;28630;-67
2022/06/24 14:00:29;;;;;;;5.12;2.33;;;;;;;29.72;27.53;99676.19;2104243;84;31034;-66
2022/06/24 14:03:30;;;;;;;5.97;2.62;;;;;;;29.78;27.86;99665.66;2104500;84;32986;-66
2022/06/24 14:06:31;;;;;;;4.20;2.10;;;;;;;29.85;27.63;99665.09;2106411;84;30251;-67
2022/06/24 14:09:33;;;;;;;7.25;2.50;;;;;;;29.89;27.68;99668.25;2104894;84;27724;-66
2022/06/24 14:12:34;;;;;;;2.47;2.20;;;;;;;29.87;27.75;99663.47;2104118;84;29406;-66
2022/06/24 14:15:35;;;;;;;4.65;2.30;;;;;;;29.83;27.96;99647.05;2104036;84;31239;-65
2022/06/24 14:18:37;;;;;;;6.67;2.25;;;;;;;29.84;28.01;99648.20;2104249;84;33719;-66
2022/06/24 14:21:38;;;;;;;5.83;2.37;;;;;;;29.83;27.81;99641.53;2104316;84;29603;-66
2022/06/24 14:24:39;;;;;;;7.12;2.55;;;;;;;29.81;27.97;99642.28;2104330;84;27719;-66
2022/06/24 14:27:41;;;;;;;2.52;2.30;;;;;;;29.82;28.21;99637.91;2109803;83;29493;-62
2022/06/24 14:30:43;;;;;;;10.13;2.20;;;;;;;29.85;28.08;99634.71;2114812;83;32451;-61